createdAt,value
2017-08-31T00:00:01.557Z,21.09
2017-08-31T00:00:42.143Z,21.06
2017-08-31T00:01:22.712Z,21.04
2017-08-31T00:02:03.291Z,21.12
2017-08-31T00:02:43.860Z,21.14
2017-08-31T00:03:24.439Z,21.13
2017-08-31T00:04:05.037Z,21.17
2017-08-31T00:04:45.626Z,21.19
2017-08-31T00:05:26.207Z,21.19
2017-08-31T00:06:06.788Z,21.12
2017-08-31T00:06:47.372Z,21.14
2017-08-31T00:07:27.952Z,21.1
2017-08-31T00:08:08.522Z,21.19
2017-08-31T00:08:49.099Z,21.17
2017-08-31T00:09:29.678Z,21.1
2017-08-31T00:10:10.253Z,21.21
2017-08-31T00:10:50.838Z,21.19
2017-08-31T00:11:46.055Z,21.19
2017-08-31T00:12:26.636Z,21.17
2017-08-31T00:13:07.227Z,21.1
2017-08-31T00:13:47.813Z,21.12
2017-08-31T00:14:28.394Z,21.19
2017-08-31T00:15:08.969Z,21.16
2017-08-31T00:15:49.560Z,21.12
2017-08-31T00:16:30.129Z,21.21
2017-08-31T00:17:10.710Z,21.13
2017-08-31T00:17:51.284Z,20.97
2017-08-31T00:18:31.873Z,21.13
2017-08-31T00:19:12.446Z,21.06
2017-08-31T00:19:53.040Z,21.07
2017-08-31T00:20:33.628Z,21.01
2017-08-31T00:21:14.205Z,21.06
2017-08-31T00:21:54.783Z,21.07
2017-08-31T00:22:35.367Z,21.09
2017-08-31T00:23:15.935Z,21.07
2017-08-31T00:23:56.502Z,21.07
2017-08-31T00:24:37.079Z,21.1
2017-08-31T00:25:17.683Z,21.07
2017-08-31T00:25:58.268Z,20.98
2017-08-31T00:26:38.849Z,20.99
2017-08-31T00:27:19.428Z,21.03
2017-08-31T00:28:00.014Z,21.03
2017-08-31T00:28:40.603Z,21.01
2017-08-31T00:29:21.186Z,20.97
2017-08-31T00:30:01.754Z,20.92
2017-08-31T00:30:42.323Z,21.01
2017-08-31T00:31:22.916Z,20.99
2017-08-31T00:32:03.484Z,20.91
2017-08-31T00:32:44.057Z,20.95
2017-08-31T00:33:24.684Z,20.97
2017-08-31T00:34:05.274Z,20.98
2017-08-31T00:34:45.953Z,20.95
2017-08-31T00:35:26.516Z,21.01
2017-08-31T00:36:07.145Z,20.94
2017-08-31T00:36:47.737Z,21.01
2017-08-31T00:37:28.315Z,20.97
2017-08-31T00:38:08.897Z,20.94
2017-08-31T00:39:46.282Z,20.99
2017-08-31T00:40:26.865Z,20.95
2017-08-31T00:41:07.441Z,20.97
2017-08-31T00:41:48.027Z,21.01
2017-08-31T00:42:28.601Z,20.99
2017-08-31T00:43:09.183Z,21.01
2017-08-31T00:43:49.765Z,20.97
2017-08-31T00:44:30.354Z,20.98
2017-08-31T00:45:10.936Z,21.01
2017-08-31T00:45:51.531Z,21.01
2017-08-31T00:46:32.116Z,20.99
2017-08-31T00:47:12.708Z,21.04
2017-08-31T00:47:53.286Z,21.13
2017-08-31T00:48:33.862Z,20.99
2017-08-31T00:49:14.453Z,20.99
2017-08-31T00:49:55.020Z,21.03
2017-08-31T00:50:35.606Z,21.09
2017-08-31T00:51:16.189Z,21.1
2017-08-31T00:51:56.766Z,21.09
2017-08-31T00:52:37.340Z,21.12
2017-08-31T00:53:17.926Z,21.06
2017-08-31T00:53:58.508Z,21.06
2017-08-31T00:54:39.090Z,21.07
2017-08-31T00:55:19.668Z,21.03
2017-08-31T00:56:00.247Z,20.95
2017-08-31T00:56:40.832Z,20.97
2017-08-31T00:57:21.407Z,20.95
2017-08-31T00:58:01.994Z,21.06
2017-08-31T00:58:42.590Z,21.03
2017-08-31T01:00:30.129Z,21.01
2017-08-31T01:01:10.705Z,20.92
2017-08-31T01:01:51.305Z,20.99
2017-08-31T01:02:31.881Z,20.94
2017-08-31T01:03:12.465Z,20.98
2017-08-31T01:03:53.057Z,21.01
2017-08-31T01:04:33.649Z,20.97
2017-08-31T01:05:14.230Z,21.09
2017-08-31T01:05:54.819Z,21.04
2017-08-31T01:06:35.410Z,21.04
2017-08-31T01:07:16.002Z,21.03
2017-08-31T01:07:56.590Z,20.99
2017-08-31T01:08:37.164Z,20.99
2017-08-31T01:09:17.717Z,20.97
2017-08-31T01:09:58.309Z,20.89
2017-08-31T01:10:38.887Z,21.06
2017-08-31T01:11:19.467Z,20.97
2017-08-31T01:12:00.047Z,20.94
2017-08-31T01:12:40.639Z,20.84
2017-08-31T01:13:21.208Z,20.91
2017-08-31T01:14:01.796Z,20.85
2017-08-31T01:14:42.383Z,20.92
2017-08-31T01:15:22.954Z,20.87
2017-08-31T01:16:03.530Z,20.85
2017-08-31T01:16:44.103Z,20.89
2017-08-31T01:17:24.679Z,20.88
2017-08-31T01:18:05.256Z,20.8
2017-08-31T01:18:45.827Z,20.84
2017-08-31T01:19:26.416Z,20.84
2017-08-31T01:21:24.162Z,20.87
2017-08-31T01:22:04.743Z,20.92
2017-08-31T01:22:45.329Z,20.89
2017-08-31T01:23:25.894Z,20.94
2017-08-31T01:24:06.469Z,20.88
2017-08-31T01:24:47.086Z,20.84
2017-08-31T01:25:27.657Z,20.82
2017-08-31T01:26:08.237Z,20.85
2017-08-31T01:26:48.817Z,20.84
2017-08-31T01:27:29.405Z,20.87
2017-08-31T01:28:09.991Z,20.77
2017-08-31T01:28:50.570Z,20.85
2017-08-31T01:29:31.143Z,20.8
2017-08-31T01:30:11.732Z,20.88
2017-08-31T01:30:52.306Z,20.88
2017-08-31T01:31:32.889Z,20.74
2017-08-31T01:32:13.476Z,20.8
2017-08-31T01:32:54.049Z,20.84
2017-08-31T01:33:34.646Z,20.84
2017-08-31T01:34:15.226Z,20.8
2017-08-31T01:34:55.809Z,20.8
2017-08-31T01:35:36.381Z,20.89
2017-08-31T01:36:16.961Z,20.87
2017-08-31T01:36:57.531Z,20.77
2017-08-31T01:37:38.114Z,20.79
2017-08-31T01:38:25.388Z,20.74
2017-08-31T01:39:05.968Z,20.82
2017-08-31T01:39:46.558Z,20.77
2017-08-31T01:40:27.152Z,20.82
2017-08-31T01:41:07.718Z,20.79
2017-08-31T01:41:48.304Z,20.77
2017-08-31T01:42:28.885Z,20.77
2017-08-31T01:43:09.457Z,20.72
2017-08-31T01:43:50.053Z,20.69
2017-08-31T01:44:30.635Z,20.66
2017-08-31T01:45:11.221Z,20.57
2017-08-31T01:45:51.808Z,20.58
2017-08-31T01:46:32.395Z,20.57
2017-08-31T01:47:12.984Z,20.61
2017-08-31T01:47:53.573Z,20.61
2017-08-31T01:48:34.153Z,20.59
2017-08-31T01:49:14.736Z,20.69
2017-08-31T01:49:55.327Z,20.59
2017-08-31T01:50:35.932Z,20.62
2017-08-31T01:51:16.509Z,20.43
2017-08-31T01:51:57.082Z,20.47
2017-08-31T01:52:37.668Z,20.58
2017-08-31T01:53:18.248Z,20.58
2017-08-31T01:53:58.839Z,20.42
2017-08-31T01:54:39.412Z,20.55
2017-08-31T01:55:19.990Z,20.54
2017-08-31T01:56:00.570Z,20.58
2017-08-31T01:56:41.158Z,20.61
2017-08-31T01:57:21.734Z,20.57
2017-08-31T01:58:02.317Z,20.69
2017-08-31T01:58:42.903Z,20.58
2017-08-31T01:59:23.480Z,20.64
2017-08-31T02:00:04.064Z,20.61
2017-08-31T02:00:44.667Z,20.55
2017-08-31T02:01:25.250Z,20.59
2017-08-31T02:02:05.827Z,20.58
2017-08-31T02:02:46.414Z,20.61
2017-08-31T02:03:27.000Z,20.61
2017-08-31T02:04:07.586Z,20.58
2017-08-31T02:04:48.167Z,20.59
2017-08-31T02:05:28.758Z,20.66
2017-08-31T02:06:09.342Z,20.59
2017-08-31T02:06:49.927Z,20.57
2017-08-31T02:07:30.511Z,20.64
2017-08-31T02:08:11.089Z,20.62
2017-08-31T02:08:51.674Z,20.58
2017-08-31T02:09:32.257Z,20.66
2017-08-31T02:10:12.840Z,20.61
2017-08-31T02:10:53.424Z,20.57
2017-08-31T02:11:34.010Z,20.57
2017-08-31T02:12:14.595Z,20.57
2017-08-31T02:12:55.190Z,20.57
2017-08-31T02:13:35.778Z,20.58
2017-08-31T02:14:16.348Z,20.59
2017-08-31T02:14:56.946Z,20.5
2017-08-31T02:15:37.523Z,20.36
2017-08-31T02:16:18.109Z,20.43
2017-08-31T02:16:58.681Z,20.54
2017-08-31T02:17:39.270Z,20.52
2017-08-31T02:18:19.847Z,20.43
2017-08-31T02:19:00.424Z,20.54
2017-08-31T02:19:41.009Z,20.55
2017-08-31T02:20:21.606Z,20.55
2017-08-31T02:21:02.190Z,20.42
2017-08-31T02:21:42.779Z,20.39
2017-08-31T02:22:23.359Z,20.38
2017-08-31T02:23:03.945Z,20.39
2017-08-31T02:23:44.526Z,20.41
2017-08-31T02:24:25.117Z,20.42
2017-08-31T02:25:05.696Z,20.39
2017-08-31T02:25:46.275Z,20.33
2017-08-31T02:26:26.868Z,20.47
2017-08-31T02:27:07.450Z,20.42
2017-08-31T02:27:48.031Z,20.41
2017-08-31T02:28:28.621Z,20.48
2017-08-31T02:29:09.194Z,20.41
2017-08-31T02:29:49.791Z,20.39
2017-08-31T02:30:30.377Z,20.28
2017-08-31T02:31:10.970Z,20.38
2017-08-31T02:31:51.554Z,20.39
2017-08-31T02:32:32.139Z,20.38
2017-08-31T02:33:12.724Z,20.32
2017-08-31T02:33:53.300Z,20.28
2017-08-31T02:34:33.895Z,20.41
2017-08-31T02:35:14.479Z,20.48
2017-08-31T02:35:55.066Z,20.39
2017-08-31T02:36:35.647Z,20.48
2017-08-31T02:37:16.228Z,20.29
2017-08-31T02:37:56.829Z,20.28
2017-08-31T02:38:37.397Z,20.38
2017-08-31T02:39:17.970Z,20.36
2017-08-31T02:39:59.253Z,20.33
2017-08-31T02:40:39.840Z,20.28
2017-08-31T02:41:20.422Z,20.32
2017-08-31T02:42:00.997Z,20.24
2017-08-31T02:42:41.587Z,20.24
2017-08-31T02:43:22.168Z,20.2
2017-08-31T02:44:02.748Z,20.28
2017-08-31T02:44:43.326Z,20.21
2017-08-31T02:45:23.912Z,20.2
2017-08-31T02:46:04.494Z,20.17
2017-08-31T02:46:45.079Z,20.11
2017-08-31T02:47:25.660Z,20.13
2017-08-31T02:48:06.240Z,20.13
2017-08-31T02:48:46.810Z,20.11
2017-08-31T02:49:27.379Z,20.03
2017-08-31T02:50:07.951Z,20.02
2017-08-31T02:50:48.531Z,19.94
2017-08-31T02:51:29.101Z,19.98
2017-08-31T02:52:09.689Z,19.95
2017-08-31T02:52:50.273Z,19.96
2017-08-31T02:53:30.979Z,19.84
2017-08-31T02:54:11.564Z,19.83
2017-08-31T02:54:52.185Z,19.88
2017-08-31T02:55:32.752Z,19.84
2017-08-31T02:56:13.344Z,19.74
2017-08-31T02:56:54.120Z,19.86
2017-08-31T02:57:34.805Z,19.8
2017-08-31T02:58:15.509Z,19.8
2017-08-31T02:58:56.253Z,19.78
2017-08-31T02:59:36.913Z,19.74
2017-08-31T03:00:17.846Z,19.68
2017-08-31T03:00:58.558Z,19.73
2017-08-31T03:01:39.314Z,19.66
2017-08-31T03:02:20.050Z,19.61
2017-08-31T03:03:00.797Z,19.61
2017-08-31T03:03:41.405Z,19.55
2017-08-31T03:04:21.994Z,19.59
2017-08-31T03:05:02.564Z,19.48
2017-08-31T03:05:43.142Z,19.56
2017-08-31T03:06:24.065Z,19.5
2017-08-31T03:07:04.670Z,19.48
2017-08-31T03:07:45.256Z,19.48
2017-08-31T03:08:25.852Z,19.56
2017-08-31T03:09:06.435Z,19.58
2017-08-31T03:09:47.022Z,19.48
2017-08-31T03:10:27.599Z,19.5
2017-08-31T03:11:08.180Z,19.4
2017-08-31T03:11:49.449Z,19.36
2017-08-31T03:12:30.026Z,19.29
2017-08-31T03:13:10.617Z,19.26
2017-08-31T03:13:51.189Z,19.36
2017-08-31T03:14:31.777Z,19.31
2017-08-31T03:15:12.353Z,19.28
2017-08-31T03:15:52.925Z,19.23
2017-08-31T03:16:33.494Z,19.23
2017-08-31T03:17:14.146Z,19.25
2017-08-31T03:17:54.734Z,19.29
2017-08-31T03:18:35.315Z,19.22
2017-08-31T03:19:15.872Z,19.26
2017-08-31T03:19:56.585Z,19.25
2017-08-31T03:20:38.060Z,19.22
2017-08-31T03:21:18.707Z,19.28
2017-08-31T03:21:59.362Z,19.26
2017-08-31T03:22:39.940Z,19.26
2017-08-31T03:23:20.524Z,19.25
2017-08-31T03:24:01.089Z,19.28
2017-08-31T03:24:41.663Z,19.25
2017-08-31T03:25:22.247Z,19.23
2017-08-31T03:26:02.838Z,19.25
2017-08-31T03:26:43.420Z,19.23
2017-08-31T03:27:24.204Z,19.26
2017-08-31T03:28:04.865Z,19.25
2017-08-31T03:28:45.505Z,19.22
2017-08-31T03:29:26.139Z,19.28
2017-08-31T03:30:06.779Z,19.22
2017-08-31T03:30:47.416Z,19.23
2017-08-31T03:31:28.095Z,19.23
2017-08-31T03:32:08.816Z,19.22
2017-08-31T03:32:49.400Z,19.23
2017-08-31T03:33:30.089Z,19.18
2017-08-31T03:34:10.745Z,19.11
2017-08-31T03:34:51.409Z,19.16
2017-08-31T03:35:31.990Z,19.16
2017-08-31T03:36:12.671Z,19.22
2017-08-31T03:36:53.554Z,19.14
2017-08-31T03:37:34.127Z,19.16
2017-08-31T03:38:14.882Z,19.16
2017-08-31T03:38:55.761Z,19.1
2017-08-31T03:39:36.437Z,19.04
2017-08-31T03:40:17.022Z,19.08
2017-08-31T03:40:57.632Z,19.07
2017-08-31T03:41:38.290Z,19.1
2017-08-31T03:42:18.933Z,19.06
2017-08-31T03:42:59.506Z,19.06
2017-08-31T03:43:40.103Z,19.07
2017-08-31T03:44:20.683Z,19
2017-08-31T03:45:01.273Z,19.07
2017-08-31T03:45:41.843Z,19.04
2017-08-31T03:46:22.569Z,19.1
2017-08-31T03:47:03.158Z,19.1
2017-08-31T03:47:43.735Z,19.07
2017-08-31T03:48:24.318Z,19.06
2017-08-31T03:49:04.911Z,19.11
2017-08-31T03:49:45.487Z,19.02
2017-08-31T03:50:26.073Z,19.08
2017-08-31T03:51:06.646Z,19
2017-08-31T03:51:47.232Z,19.08
2017-08-31T03:52:27.807Z,19.06
2017-08-31T03:53:08.391Z,19.06
2017-08-31T03:53:48.981Z,19.06
2017-08-31T03:54:29.560Z,19.13
2017-08-31T03:55:10.136Z,19.11
2017-08-31T03:55:50.722Z,19.08
2017-08-31T03:56:31.301Z,19.07
2017-08-31T03:57:11.883Z,19.1
2017-08-31T03:57:52.472Z,19.14
2017-08-31T03:59:45.139Z,19.18
2017-08-31T04:00:25.716Z,19.21
2017-08-31T04:01:06.290Z,19.21
2017-08-31T04:01:46.869Z,19.22
2017-08-31T04:02:27.455Z,19.19
2017-08-31T04:03:08.035Z,19.26
2017-08-31T04:03:48.633Z,19.25
2017-08-31T04:04:29.197Z,19.22
2017-08-31T04:05:09.773Z,19.23
2017-08-31T04:05:50.356Z,19.21
2017-08-31T04:06:30.937Z,19.19
2017-08-31T04:07:11.509Z,19.25
2017-08-31T04:07:52.086Z,19.23
2017-08-31T04:08:32.670Z,19.28
2017-08-31T04:09:13.251Z,19.25
2017-08-31T04:09:53.830Z,19.22
2017-08-31T04:10:34.409Z,19.26
2017-08-31T04:11:14.990Z,19.32
2017-08-31T04:11:55.585Z,19.32
2017-08-31T04:12:36.163Z,19.22
2017-08-31T04:13:16.747Z,19.25
2017-08-31T04:13:57.320Z,19.36
2017-08-31T04:14:37.902Z,19.33
2017-08-31T04:15:18.487Z,19.28
2017-08-31T04:15:59.077Z,19.32
2017-08-31T04:16:39.645Z,19.25
2017-08-31T04:18:37.391Z,19.28
2017-08-31T04:19:17.993Z,19.25
2017-08-31T04:19:58.573Z,19.19
2017-08-31T04:20:39.164Z,19.21
2017-08-31T04:21:19.731Z,19.21
2017-08-31T04:22:00.304Z,19.26
2017-08-31T04:22:40.878Z,19.22
2017-08-31T04:23:21.450Z,19.23
2017-08-31T04:24:02.034Z,19.22
2017-08-31T04:24:42.614Z,19.26
2017-08-31T04:25:23.198Z,19.23
2017-08-31T04:26:03.778Z,19.23
2017-08-31T04:26:44.351Z,19.29
2017-08-31T04:27:24.930Z,19.26
2017-08-31T04:28:05.511Z,19.22
2017-08-31T04:28:46.094Z,19.21
2017-08-31T04:29:26.673Z,19.29
2017-08-31T04:30:07.261Z,19.31
2017-08-31T04:30:47.836Z,19.37
2017-08-31T04:31:28.425Z,19.37
2017-08-31T04:32:23.752Z,19.25
2017-08-31T04:33:04.332Z,19.28
2017-08-31T04:33:44.914Z,19.4
2017-08-31T04:34:25.504Z,19.39
2017-08-31T04:35:06.074Z,19.4
2017-08-31T04:35:46.663Z,19.41
2017-08-31T04:36:27.248Z,19.37
2017-08-31T04:37:07.837Z,19.4
2017-08-31T04:37:48.414Z,19.4
2017-08-31T04:38:28.995Z,19.44
2017-08-31T04:39:09.573Z,19.4
2017-08-31T04:39:50.147Z,19.48
2017-08-31T04:40:30.721Z,19.43
2017-08-31T04:41:11.302Z,19.46
2017-08-31T04:41:51.887Z,19.4
2017-08-31T04:42:32.475Z,19.43
2017-08-31T04:43:13.044Z,19.41
2017-08-31T04:43:53.625Z,19.41
2017-08-31T04:44:34.208Z,19.54
2017-08-31T04:45:14.788Z,19.51
2017-08-31T04:45:55.373Z,19.47
2017-08-31T04:46:35.955Z,19.55
2017-08-31T04:47:16.529Z,19.48
2017-08-31T04:47:57.095Z,19.54
2017-08-31T04:48:37.681Z,19.5
2017-08-31T04:49:18.280Z,19.51
2017-08-31T04:49:58.843Z,19.65
2017-08-31T04:50:39.430Z,19.58
2017-08-31T04:51:20.008Z,19.54
2017-08-31T04:52:00.589Z,19.56
2017-08-31T04:52:41.171Z,19.63
2017-08-31T04:53:21.761Z,19.55
2017-08-31T04:54:02.341Z,19.54
2017-08-31T04:54:42.905Z,19.55
2017-08-31T04:55:23.478Z,19.56
2017-08-31T04:56:04.064Z,19.51
2017-08-31T04:56:44.647Z,19.62
2017-08-31T04:57:25.227Z,19.61
2017-08-31T04:58:05.812Z,19.66
2017-08-31T04:58:46.430Z,19.71
2017-08-31T04:59:27.025Z,19.77
2017-08-31T05:00:07.596Z,19.8
2017-08-31T05:00:48.173Z,19.74
2017-08-31T05:01:28.753Z,19.74
2017-08-31T05:02:09.337Z,19.81
2017-08-31T05:02:49.914Z,19.84
2017-08-31T05:03:30.491Z,19.92
2017-08-31T05:04:11.080Z,19.87
2017-08-31T05:04:51.655Z,19.94
2017-08-31T05:05:32.246Z,19.95
2017-08-31T05:06:12.835Z,19.95
2017-08-31T05:06:53.412Z,19.98
2017-08-31T05:07:34.001Z,20.03
2017-08-31T05:08:14.582Z,20.02
2017-08-31T05:08:55.163Z,20.05
2017-08-31T05:09:35.741Z,20.02
2017-08-31T05:10:16.321Z,20.03
2017-08-31T05:10:56.902Z,20.02
2017-08-31T05:11:37.484Z,19.99
2017-08-31T05:12:18.065Z,20.03
2017-08-31T05:12:58.649Z,20.1
2017-08-31T05:13:39.229Z,20.13
2017-08-31T05:14:19.806Z,20.23
2017-08-31T05:15:00.387Z,20.2
2017-08-31T05:15:40.971Z,20.21
2017-08-31T05:16:21.554Z,20.2
2017-08-31T05:17:02.132Z,20.18
2017-08-31T05:17:42.712Z,20.24
2017-08-31T05:18:23.298Z,20.29
2017-08-31T05:19:03.869Z,20.28
2017-08-31T05:19:44.445Z,20.43
2017-08-31T05:20:25.025Z,20.39
2017-08-31T05:21:05.604Z,20.41
2017-08-31T05:21:46.225Z,20.5
2017-08-31T05:22:26.803Z,20.55
2017-08-31T05:23:07.371Z,20.58
2017-08-31T05:23:47.960Z,20.73
2017-08-31T05:24:28.541Z,20.76
2017-08-31T05:25:09.118Z,20.76
2017-08-31T05:25:49.701Z,20.92
2017-08-31T05:26:30.280Z,20.95
2017-08-31T05:27:10.864Z,21.06
2017-08-31T05:27:51.444Z,21.06
2017-08-31T05:28:32.019Z,21.04
2017-08-31T05:29:12.594Z,21.16
2017-08-31T05:29:53.172Z,21.22
2017-08-31T05:30:33.752Z,21.16
2017-08-31T05:31:14.332Z,21.21
2017-08-31T05:31:54.917Z,21.16
2017-08-31T05:32:35.498Z,21.19
2017-08-31T05:33:16.082Z,21.22
2017-08-31T05:34:53.464Z,21.31
2017-08-31T05:35:34.048Z,21.34
2017-08-31T05:36:14.626Z,21.44
2017-08-31T05:38:12.316Z,21.67
2017-08-31T05:38:52.899Z,21.74
2017-08-31T05:39:33.480Z,21.88
2017-08-31T05:40:14.057Z,21.92
2017-08-31T05:40:54.636Z,21.9
2017-08-31T05:41:35.214Z,21.96
2017-08-31T05:42:15.799Z,22
2017-08-31T05:42:56.376Z,22.07
2017-08-31T05:43:36.964Z,22.15
2017-08-31T05:44:17.542Z,22.28
2017-08-31T05:44:58.128Z,22.35
2017-08-31T05:45:38.709Z,22.39
2017-08-31T05:46:19.303Z,22.55
2017-08-31T05:46:59.888Z,22.68
2017-08-31T05:47:40.462Z,22.85
2017-08-31T05:48:21.058Z,23.1
2017-08-31T05:49:01.650Z,23.32
2017-08-31T05:50:59.377Z,23.68
2017-08-31T05:51:39.958Z,23.8
2017-08-31T05:52:20.537Z,23.84
2017-08-31T05:53:01.120Z,24
2017-08-31T05:53:41.702Z,24.08
2017-08-31T05:54:22.301Z,24.25
2017-08-31T05:55:02.876Z,24.47
2017-08-31T05:55:43.461Z,24.68
2017-08-31T05:56:24.046Z,24.73
2017-08-31T05:57:04.632Z,24.88
2017-08-31T05:57:45.204Z,24.96
2017-08-31T05:58:25.790Z,25.1
2017-08-31T05:59:06.369Z,25.05
2017-08-31T05:59:46.962Z,25.17
2017-08-31T06:00:27.534Z,25.28
2017-08-31T06:01:08.117Z,25.28
2017-08-31T06:01:48.695Z,25.33
2017-08-31T06:02:29.258Z,25.3
2017-08-31T06:03:09.847Z,25.23
2017-08-31T06:03:50.423Z,25.33
2017-08-31T06:04:31.006Z,25.4
2017-08-31T06:05:11.589Z,25.15
2017-08-31T06:05:52.171Z,25.17
2017-08-31T06:06:32.754Z,25.03
2017-08-31T06:08:25.393Z,24.99
2017-08-31T06:09:05.980Z,25.06
2017-08-31T06:09:46.552Z,24.93
2017-08-31T06:10:27.140Z,24.93
2017-08-31T06:11:07.723Z,25.38
2017-08-31T06:11:48.313Z,24.93
2017-08-31T06:12:28.903Z,24.58
2017-08-31T06:13:09.484Z,24.32
2017-08-31T06:13:50.064Z,24.09
2017-08-31T06:14:30.646Z,23.95
2017-08-31T06:15:11.233Z,23.87
2017-08-31T06:15:51.812Z,23.79
2017-08-31T06:16:32.396Z,23.87
2017-08-31T06:17:12.984Z,23.93
2017-08-31T06:17:53.572Z,23.94
2017-08-31T06:18:34.162Z,23.95
2017-08-31T06:19:14.750Z,24.05
2017-08-31T06:19:55.329Z,24.12
2017-08-31T06:20:35.914Z,24.13
2017-08-31T06:21:16.491Z,24.31
2017-08-31T06:21:57.068Z,24.25
2017-08-31T06:22:37.642Z,24.3
2017-08-31T06:23:18.226Z,24.39
2017-08-31T06:23:58.808Z,24.4
2017-08-31T06:24:39.400Z,24.57
2017-08-31T06:25:19.983Z,24.68
2017-08-31T06:26:00.574Z,24.81
2017-08-31T06:26:41.156Z,25
2017-08-31T06:27:21.728Z,24.95
2017-08-31T06:28:02.307Z,25.02
2017-08-31T06:28:42.886Z,25.21
2017-08-31T06:29:23.479Z,25.21
2017-08-31T06:30:04.066Z,25.4
2017-08-31T06:30:44.651Z,25.4
2017-08-31T06:31:25.232Z,25.58
2017-08-31T06:32:05.824Z,25.51
2017-08-31T06:32:46.405Z,25.45
2017-08-31T06:33:26.993Z,25.43
2017-08-31T06:34:07.585Z,25.46
2017-08-31T06:34:48.172Z,25.75
2017-08-31T06:35:28.759Z,25.73
2017-08-31T06:36:09.347Z,25.4
2017-08-31T06:36:49.934Z,25.14
2017-08-31T06:37:30.518Z,25.02
2017-08-31T06:38:11.096Z,24.96
2017-08-31T06:38:51.681Z,24.98
2017-08-31T06:39:32.269Z,24.87
2017-08-31T06:40:12.856Z,24.85
2017-08-31T06:40:53.443Z,24.85
2017-08-31T06:41:34.035Z,24.87
2017-08-31T06:42:14.618Z,24.81
2017-08-31T06:42:55.184Z,24.93
2017-08-31T06:43:35.772Z,24.96
2017-08-31T06:44:16.359Z,25.02
2017-08-31T06:44:56.947Z,25.05
2017-08-31T06:45:37.528Z,24.85
2017-08-31T06:46:18.107Z,24.85
2017-08-31T06:46:58.706Z,24.95
2017-08-31T06:47:39.277Z,25.02
2017-08-31T06:48:19.859Z,25.06
2017-08-31T06:49:00.435Z,25.05
2017-08-31T06:49:41.019Z,25.17
2017-08-31T06:50:21.591Z,25.17
2017-08-31T06:51:02.171Z,25.17
2017-08-31T06:51:43.481Z,25.17
2017-08-31T06:52:24.065Z,25.17
2017-08-31T06:53:04.637Z,25.32
2017-08-31T06:53:45.230Z,25.6
2017-08-31T06:54:25.815Z,25.83
2017-08-31T06:55:06.406Z,25.99
2017-08-31T06:55:46.978Z,26.02
2017-08-31T06:56:27.569Z,26.33
2017-08-31T06:57:08.140Z,26.35
2017-08-31T06:57:48.720Z,26.39
2017-08-31T06:58:29.298Z,26.67
2017-08-31T06:59:09.892Z,26.87
2017-08-31T07:00:05.381Z,27.1
2017-08-31T07:00:45.957Z,27.24
2017-08-31T07:01:26.522Z,27.36
2017-08-31T07:02:07.112Z,27.22
2017-08-31T07:02:47.673Z,27.12
2017-08-31T07:03:28.258Z,27
2017-08-31T07:04:09.377Z,26.69
2017-08-31T07:04:49.973Z,26.52
2017-08-31T07:05:30.555Z,26.3
2017-08-31T07:06:11.139Z,26.01
2017-08-31T07:06:51.728Z,25.97
2017-08-31T07:07:32.299Z,25.92
2017-08-31T07:08:12.896Z,25.65
2017-08-31T07:08:53.466Z,25.64
2017-08-31T07:09:34.058Z,25.67
2017-08-31T07:10:14.636Z,25.64
2017-08-31T07:10:55.231Z,25.55
2017-08-31T07:11:35.826Z,25.46
2017-08-31T07:12:16.409Z,25.38
2017-08-31T07:12:56.997Z,25.27
2017-08-31T07:13:37.570Z,25.21
2017-08-31T07:14:18.150Z,25.18
2017-08-31T07:14:58.747Z,25.18
2017-08-31T07:15:39.341Z,25.13
2017-08-31T07:16:19.976Z,25.2
2017-08-31T07:17:00.560Z,25.14
2017-08-31T07:17:41.148Z,25.15
2017-08-31T07:18:21.729Z,25
2017-08-31T07:19:03.146Z,25.05
2017-08-31T07:19:43.729Z,24.95
2017-08-31T07:20:24.310Z,24.85
2017-08-31T07:21:04.885Z,24.84
2017-08-31T07:21:45.479Z,24.69
2017-08-31T07:22:26.061Z,24.76
2017-08-31T07:23:06.631Z,24.52
2017-08-31T07:23:47.218Z,24.53
2017-08-31T07:24:27.809Z,24.39
2017-08-31T07:25:08.385Z,24.4
2017-08-31T07:25:48.978Z,24.39
2017-08-31T07:26:29.551Z,24.32
2017-08-31T07:27:10.140Z,24.22
2017-08-31T07:27:50.714Z,24.12
2017-08-31T07:28:31.299Z,24.1
2017-08-31T07:29:11.881Z,24.02
2017-08-31T07:29:52.463Z,23.94
2017-08-31T07:30:33.053Z,23.79
2017-08-31T07:31:13.632Z,23.85
2017-08-31T07:31:54.210Z,23.76
2017-08-31T07:32:34.796Z,23.63
2017-08-31T07:33:15.414Z,23.7
2017-08-31T07:33:56.012Z,23.73
2017-08-31T07:34:36.612Z,23.84
2017-08-31T07:35:17.193Z,23.79
2017-08-31T07:35:57.767Z,23.84
2017-08-31T07:36:38.351Z,23.98
2017-08-31T07:37:18.930Z,24.08
2017-08-31T07:37:59.519Z,24.27
2017-08-31T07:38:40.099Z,24.25
2017-08-31T07:39:20.705Z,24.1
2017-08-31T07:40:01.276Z,24.18
2017-08-31T07:40:41.856Z,24.22
2017-08-31T07:41:22.434Z,24.24
2017-08-31T07:42:03.031Z,24.21
2017-08-31T07:42:43.610Z,24.21
2017-08-31T07:43:24.200Z,24.15
2017-08-31T07:44:04.790Z,24.13
2017-08-31T07:44:45.362Z,24.21
2017-08-31T07:45:25.941Z,24.32
2017-08-31T07:46:06.521Z,24.43
2017-08-31T07:46:47.110Z,24.5
2017-08-31T07:47:27.684Z,24.64
2017-08-31T07:48:08.281Z,24.71
2017-08-31T07:48:48.860Z,24.88
2017-08-31T07:49:29.452Z,24.81
2017-08-31T07:50:10.045Z,24.99
2017-08-31T07:50:50.631Z,25.05
2017-08-31T07:51:31.219Z,25.08
2017-08-31T07:52:11.815Z,25.2
2017-08-31T07:52:52.397Z,25.2
2017-08-31T07:53:32.974Z,25.28
2017-08-31T07:54:13.561Z,25.27
2017-08-31T07:54:54.153Z,25.27
2017-08-31T07:55:34.723Z,25.35
2017-08-31T07:56:15.308Z,25.35
2017-08-31T07:56:55.899Z,25.51
2017-08-31T07:57:36.480Z,25.67
2017-08-31T07:58:17.071Z,25.85
2017-08-31T07:58:57.653Z,25.73
2017-08-31T07:59:38.245Z,25.82
2017-08-31T08:00:18.826Z,25.7
2017-08-31T08:00:59.459Z,25.75
2017-08-31T08:01:40.064Z,25.79
2017-08-31T08:02:20.641Z,25.73
2017-08-31T08:03:01.235Z,25.64
2017-08-31T08:03:41.817Z,25.77
2017-08-31T08:04:22.393Z,25.8
2017-08-31T08:05:02.979Z,25.64
2017-08-31T08:05:43.570Z,25.58
2017-08-31T08:06:24.156Z,25.51
2017-08-31T08:08:01.544Z,25.82
2017-08-31T08:08:42.127Z,25.73
2017-08-31T08:09:22.714Z,25.88
2017-08-31T08:11:20.465Z,25.85
2017-08-31T08:12:01.038Z,25.77
2017-08-31T08:12:41.635Z,25.62
2017-08-31T08:13:22.231Z,25.77
2017-08-31T08:14:02.808Z,25.85
2017-08-31T08:14:43.397Z,25.82
2017-08-31T08:15:23.989Z,25.83
2017-08-31T08:16:04.555Z,25.9
2017-08-31T08:16:45.146Z,25.94
2017-08-31T08:17:25.756Z,26.02
2017-08-31T08:18:06.307Z,26.23
2017-08-31T08:18:46.880Z,26.29
2017-08-31T08:20:39.533Z,26.35
2017-08-31T08:21:20.117Z,26.4
2017-08-31T08:22:00.697Z,26.57
2017-08-31T08:22:41.281Z,26.67
2017-08-31T08:23:21.872Z,26.88
2017-08-31T08:24:02.457Z,26.94
2017-08-31T08:24:43.036Z,26.88
2017-08-31T08:25:23.619Z,26.66
2017-08-31T08:26:04.204Z,26.57
2017-08-31T08:26:44.772Z,26.47
2017-08-31T08:27:25.364Z,26.5
2017-08-31T08:28:05.943Z,26.55
2017-08-31T08:28:46.542Z,26.52
2017-08-31T08:29:27.126Z,26.7
2017-08-31T08:30:07.702Z,26.91
2017-08-31T08:30:48.302Z,26.94
2017-08-31T08:31:28.936Z,26.89
2017-08-31T08:32:09.466Z,26.75
2017-08-31T08:32:50.047Z,26.44
2017-08-31T08:33:30.630Z,26.33
2017-08-31T08:34:11.204Z,26.28
2017-08-31T08:34:51.784Z,26.3
2017-08-31T08:35:32.353Z,26.29
2017-08-31T08:36:12.945Z,26.35
2017-08-31T08:36:53.535Z,26.33
2017-08-31T08:37:34.126Z,26.66
2017-08-31T08:38:14.711Z,26.82
2017-08-31T08:38:55.296Z,27.06
2017-08-31T08:39:35.880Z,27.44
2017-08-31T08:40:16.464Z,27.69
2017-08-31T08:40:57.048Z,27.99
2017-08-31T08:41:37.637Z,28.17
2017-08-31T08:42:18.224Z,28.27
2017-08-31T08:42:58.809Z,28.37
2017-08-31T08:43:54.007Z,28.56
2017-08-31T08:44:34.597Z,28.8
2017-08-31T08:45:15.194Z,29.04
2017-08-31T08:45:55.788Z,29.41
2017-08-31T08:46:36.380Z,29.67
2017-08-31T08:47:16.957Z,29.94
2017-08-31T08:47:57.538Z,29.95
2017-08-31T08:48:38.121Z,30.07
2017-08-31T08:49:18.709Z,29.94
2017-08-31T08:49:59.303Z,30
2017-08-31T08:50:39.881Z,29.85
2017-08-31T08:51:20.467Z,29.87
2017-08-31T08:52:01.038Z,29.71
2017-08-31T08:52:41.633Z,29.67
2017-08-31T08:53:22.238Z,29.48
2017-08-31T08:54:02.826Z,29.19
2017-08-31T08:54:43.420Z,29.14
2017-08-31T08:55:24.009Z,28.73
2017-08-31T08:56:04.597Z,28.48
2017-08-31T08:56:45.182Z,28.41
2017-08-31T08:57:25.766Z,28.43
2017-08-31T08:58:06.371Z,28.4
2017-08-31T08:58:46.958Z,28.41
2017-08-31T08:59:27.544Z,28.29